Time;durP1;ratioP1;P1;durP2;ratioP2;P2;SDS_P1;SDS_P2;PMS_P1;PMS_P2;Temp;Humidity;BMP_temperature;BMP_pressure;BME280_temperature;BME280_humidity;BME280_pressure;Samples;Min_cycle;Max_cycle;Signal;HPM_P1;HPM_P2
2021/12/05 04:30:42;;;;;;;3.87;2.70;;;;;;;9.15;53.27;97506.59;8372527;22;21841;-85
2021/12/05 04:34:04;;;;;;;3.30;2.47;;;;;;;8.99;52.98;97506.41;6975007;28;20204;-85
2021/12/05 04:37:26;;;;;;;4.70;2.20;;;;;;;9.00;52.61;97502.66;6979559;28;20226;-85
2021/12/05 04:40:48;;;;;;;3.20;2.30;;;;;;;9.13;52.50;97496.31;6964466;28;20773;-85
2021/12/05 04:44:10;;;;;;;4.00;2.40;;;;;;;9.08;53.25;97523.84;6973518;22;20227;-81
2021/12/05 04:47:33;;;;;;;6.17;2.40;;;;;;;9.10;53.04;97500.25;6921529;28;20212;-79
2021/12/05 04:50:55;;;;;;;5.13;2.33;;;;;;;9.14;53.03;97493.34;6920395;28;20213;-79
2021/12/05 04:54:19;;;;;;;8.97;2.30;;;;;;;9.34;52.09;97513.56;6913061;28;20229;-79
2021/12/05 04:57:41;;;;;;;3.13;2.43;;;;;;;9.28;52.96;97511.78;6893470;28;20226;-79
2021/12/05 05:01:03;;;;;;;5.87;2.57;;;;;;;9.36;53.07;97519.53;6901260;28;20196;-79
2021/12/05 05:04:28;;;;;;;2.27;1.90;;;;;;;9.20;52.65;97512.09;6898804;28;20224;-79
2021/12/05 05:07:50;;;;;;;3.53;2.03;;;;;;;9.34;52.72;97521.63;6899638;28;20224;-79
2021/12/05 05:11:13;;;;;;;5.43;2.40;;;;;;;9.70;51.31;97523.38;6898569;28;20299;-79
2021/12/05 05:14:35;;;;;;;4.03;2.33;;;;;;;9.05;52.86;97519.75;6898497;28;20231;-78
2021/12/05 05:17:58;;;;;;;3.10;2.30;;;;;;;9.49;51.78;97527.41;6910985;28;20229;-78
2021/12/05 05:21:34;;;;;;;4.87;2.60;;;;;;;8.93;53.07;97515.38;6908632;28;20219;-79
2021/12/05 05:47:32;;;;;;;5.30;2.57;;;;;;;8.95;54.31;97531.28;7054985;27;20571;-80
2021/12/05 05:50:53;;;;;;;2.43;2.03;;;;;;;8.63;54.96;97544.06;7054954;28;20304;-79
2021/12/05 05:54:16;;;;;;;5.60;2.37;;;;;;;8.71;55.12;97532.19;7054663;28;20244;-79
2021/12/05 05:57:43;;;;;;;2.20;2.00;;;;;;;9.01;53.81;97533.88;7051913;28;20194;-78
2021/12/05 06:01:08;;;;;;;2.67;2.33;;;;;;;9.26;53.26;97545.31;7055286;28;20296;-79
2021/12/05 06:04:31;;;;;;;4.80;2.97;;;;;;;9.17;52.85;97528.69;7053985;28;20260;-79
2021/12/05 06:07:53;;;;;;;4.83;2.13;;;;;;;8.98;52.57;97515.53;7054517;28;20202;-80
2021/12/05 06:11:16;;;;;;;3.40;2.43;;;;;;;8.68;53.80;97530.78;7054882;28;20215;-79
2021/12/05 06:14:38;;;;;;;8.33;4.30;;;;;;;8.70;53.91;97535.91;7053261;28;20218;-79
2021/12/05 06:17:59;;;;;;;3.23;2.40;;;;;;;9.03;53.41;97523.72;7053974;28;20220;-79
2021/12/05 06:21:23;;;;;;;2.53;1.90;;;;;;;8.49;54.47;97528.28;7054196;28;20219;-79
2021/12/05 06:24:44;;;;;;;4.10;2.10;;;;;;;8.41;54.79;97534.78;7053287;28;20364;-79
2021/12/05 06:28:11;;;;;;;3.57;2.17;;;;;;;8.38;54.53;97524.47;7052976;28;20572;-79
2021/12/05 06:31:48;;;;;;;2.63;2.00;;;;;;;8.57;54.58;97534.19;7053133;28;20252;-79
2021/12/05 06:39:19;;;;;;;5.93;2.93;;;;;;;8.62;54.65;97525.47;7052455;28;20187;-79
2021/12/05 06:42:54;;;;;;;2.97;2.20;;;;;;;8.61;54.27;97550.69;7054042;28;20546;-79
2021/12/05 06:46:20;;;;;;;5.57;2.33;;;;;;;8.37;55.81;97548.88;7057463;28;20232;-80
2021/12/05 06:49:42;;;;;;;2.30;2.10;;;;;;;8.77;54.78;97558.16;7057080;28;20215;-79
2021/12/05 06:53:06;;;;;;;2.70;2.13;;;;;;;8.60;54.57;97547.16;7058074;28;20254;-80
2021/12/05 06:56:29;;;;;;;2.60;2.40;;;;;;;8.54;54.42;97525.75;7049084;28;20231;-79
2021/12/05 06:59:51;;;;;;;5.53;2.73;;;;;;;8.59;54.55;97537.47;7037269;28;20203;-79
2021/12/05 07:03:13;;;;;;;4.33;2.60;;;;;;;8.46;54.49;97537.63;7037210;28;20223;-79
2021/12/05 07:06:35;;;;;;;2.80;2.53;;;;;;;8.35;55.51;97546.41;7030974;28;20732;-79
2021/12/05 07:09:57;;;;;;;3.90;2.30;;;;;;;8.68;54.66;97552.25;7035275;28;20208;-82
2021/12/05 07:17:03;;;;;;;4.70;2.30;;;;;;;8.63;54.72;97545.91;7021063;28;20786;-79
2021/12/05 07:20:38;;;;;;;3.47;2.43;;;;;;;8.65;54.06;97547.31;7017225;28;20265;-79
2021/12/05 07:24:08;;;;;;;6.90;2.90;;;;;;;8.56;54.53;97553.22;7017185;28;20230;-79
2021/12/05 07:42:17;;;;;;;3.13;2.40;;;;;;;7.72;56.72;97549.41;7016761;28;20713;-80
2021/12/05 07:45:44;;;;;;;3.43;2.30;;;;;;;7.57;57.68;97568.47;7029111;28;20232;-80
2021/12/05 07:49:10;;;;;;;2.37;2.10;;;;;;;7.64;57.20;97555.00;7009606;28;20240;-81
2021/12/05 07:52:32;;;;;;;2.97;2.10;;;;;;;7.50;56.33;97475.69;7012021;28;20255;-81
2021/12/05 07:55:59;;;;;;;3.20;2.07;;;;;;;8.41;55.39;97576.91;7036866;28;20227;-81
2021/12/05 07:59:34;;;;;;;3.27;2.20;;;;;;;8.94;54.38;97570.75;7035295;28;20258;-81
2021/12/05 08:17:32;;;;;;;5.73;2.10;;;;;;;9.73;52.60;97577.56;7039811;28;20186;-80
2021/12/05 08:20:54;;;;;;;3.87;2.37;;;;;;;9.94;51.85;97562.75;7020671;28;20207;-80
2021/12/05 08:24:17;;;;;;;3.33;2.73;;;;;;;10.09;51.65;97565.88;7027176;28;20234;-80
2021/12/05 08:27:42;;;;;;;3.70;2.73;;;;;;;10.36;51.09;97558.97;7035078;28;20227;-81
2021/12/05 08:31:12;;;;;;;3.00;2.50;;;;;;;11.99;46.96;97565.34;7017064;28;20203;-81
2021/12/05 08:34:53;;;;;;;2.43;2.17;;;;;;;13.05;43.63;97565.94;7019793;28;20229;-81
2021/12/05 08:42:21;;;;;;;3.23;2.17;;;;;;;12.90;43.67;97565.72;7020801;28;20261;-80
2021/12/05 08:46:14;;;;;;;5.00;2.63;;;;;;;12.08;45.19;97560.34;7043769;28;20259;-81
2021/12/05 09:26:45;;;;;;;5.37;2.40;;;;;;;11.05;48.59;97575.09;7012776;28;20264;-79
2021/12/05 09:53:14;;;;;;;5.93;3.17;;;;;;;12.88;43.42;97573.28;7004481;28;20228;-80
2021/12/05 10:06:43;;;;;;;2.87;2.40;;;;;;;13.27;41.96;97547.81;7004281;28;20660;-79
2021/12/05 10:07:46;;;;;;;5.33;2.40;;;;;;;11.84;45.32;97540.78;7015763;28;20609;-79
2021/12/05 10:11:21;;;;;;;2.10;1.87;;;;;;;12.38;44.03;97534.66;7008369;28;20681;-79
2021/12/05 10:14:52;;;;;;;2.00;1.87;;;;;;;12.39;43.41;97536.28;7003494;28;20225;-79
2021/12/05 10:36:39;;;;;;;2.03;1.80;;;;;;;13.07;42.78;97522.41;7009613;28;20585;-79
2021/12/05 10:40:06;;;;;;;5.10;2.00;;;;;;;12.55;42.75;97524.66;7019550;28;20208;-79
2021/12/05 10:43:30;;;;;;;2.23;2.00;;;;;;;11.75;44.43;97503.63;7050853;22;20220;-83
2021/12/05 10:46:52;;;;;;;2.13;2.03;;;;;;;12.08;44.03;97514.44;6948797;28;20231;-85
2021/12/05 10:50:35;;;;;;;2.47;2.20;;;;;;;12.50;44.09;97499.41;6951451;28;20203;-81
2021/12/05 10:54:00;;;;;;;4.33;2.00;;;;;;;12.87;44.06;97517.50;6952187;28;20230;-82
2021/12/05 10:57:28;;;;;;;2.67;2.00;;;;;;;12.97;42.52;97506.84;6951594;28;20214;-84
2021/12/05 11:00:55;;;;;;;1.80;1.70;;;;;;;12.83;43.54;97510.97;6951811;28;20186;-83
2021/12/05 11:04:19;;;;;;;4.83;1.80;;;;;;;12.82;42.24;97517.47;6951315;28;20231;-82
2021/12/05 11:07:40;;;;;;;3.70;1.70;;;;;;;12.57;42.93;97513.59;6944446;28;20235;-83
2021/12/05 11:11:10;;;;;;;2.43;1.97;;;;;;;12.16;44.58;97509.44;6943036;28;20203;-80
2021/12/05 11:14:34;;;;;;;1.90;1.70;;;;;;;12.67;43.34;97500.19;6949703;28;20219;-82
2021/12/05 11:17:59;;;;;;;2.57;2.00;;;;;;;12.49;43.66;97495.91;6950583;28;20486;-83
2021/12/05 11:21:24;;;;;;;3.60;1.87;;;;;;;12.89;42.22;97504.56;6953304;28;20300;-82
2021/12/05 11:24:52;;;;;;;3.60;2.10;;;;;;;13.49;41.84;97496.34;6950815;28;20233;-81
2021/12/05 11:28:24;;;;;;;3.47;1.77;;;;;;;12.28;42.77;97485.84;6950798;28;20223;-82
2021/12/05 11:31:49;;;;;;;2.37;1.90;;;;;;;13.49;40.88;97494.47;6950371;28;20405;-84
2021/12/05 11:35:28;;;;;;;1.90;1.70;;;;;;;13.90;40.72;97493.78;6948997;28;20697;-81
2021/12/05 11:38:50;;;;;;;2.83;1.70;;;;;;;13.45;41.16;97489.84;6940455;28;20199;-83
2021/12/05 11:42:14;;;;;;;2.57;1.90;;;;;;;13.11;41.31;97494.56;6922124;28;20208;-81
2021/12/05 11:45:52;;;;;;;2.00;1.80;;;;;;;13.03;42.28;97495.03;6921356;28;20242;-82
2021/12/05 11:49:20;;;;;;;5.97;3.70;;;;;;;13.58;41.25;97465.84;6923694;28;20242;-82
2021/12/05 11:52:43;;;;;;;4.97;1.53;;;;;;;14.08;39.61;97481.72;6950154;28;20635;-82
2021/12/05 11:56:05;;;;;;;2.57;1.63;;;;;;;13.55;40.55;97465.53;6946358;28;20223;-81
2021/12/05 11:59:30;;;;;;;2.40;1.53;;;;;;;13.29;41.51;97488.03;6952243;28;20206;-83
2021/12/05 12:02:53;;;;;;;1.70;1.60;;;;;;;12.84;41.63;97482.88;6977234;28;20198;-82
2021/12/05 12:06:18;;;;;;;1.70;1.60;;;;;;;12.10;43.49;97477.22;6974795;28;20603;-82
2021/12/05 12:09:41;;;;;;;2.40;1.60;;;;;;;12.04;43.47;97467.38;6948647;28;20195;-82
2021/12/05 12:13:09;;;;;;;1.90;1.80;;;;;;;12.25;43.31;97501.75;6945288;28;20199;-82
2021/12/05 12:16:33;;;;;;;2.00;1.80;;;;;;;11.33;45.14;97470.72;6936482;28;20224;-84
2021/12/05 12:19:58;;;;;;;1.70;1.60;;;;;;;11.78;44.46;97493.16;6942435;28;20191;-83
2021/12/05 12:23:26;;;;;;;4.40;1.90;;;;;;;11.35;46.54;97494.78;6939832;28;20207;-84
2021/12/05 12:26:49;;;;;;;2.93;2.10;;;;;;;11.64;46.73;97497.22;6939115;28;20217;-85
2021/12/05 12:30:18;;;;;;;2.53;2.13;;;;;;;11.11;46.71;97471.66;6938361;28;20618;-84
2021/12/05 12:33:47;;;;;;;3.33;2.00;;;;;;;11.52;45.48;97471.34;6945085;28;20282;-86
2021/12/05 12:37:18;;;;;;;5.07;2.17;;;;;;;11.64;46.78;97499.13;6959198;28;20689;-85
2021/12/05 12:40:44;;;;;;;3.77;2.20;;;;;;;11.98;46.16;97495.38;6954132;28;20191;-83
2021/12/05 12:44:08;;;;;;;2.20;2.00;;;;;;;11.81;47.23;97489.94;6954809;28;20241;-83
2021/12/05 12:47:32;;;;;;;4.73;1.90;;;;;;;12.04;46.88;97483.59;6955490;28;20219;-83
2021/12/05 12:50:53;;;;;;;2.23;1.80;;;;;;;12.19;45.63;97492.75;6953263;28;20221;-83
2021/12/05 12:54:25;;;;;;;3.10;2.10;;;;;;;11.86;46.80;97494.66;6950289;28;20238;-82
2021/12/05 12:57:47;;;;;;;3.77;2.50;;;;;;;12.12;45.73;97491.28;6952257;28;20216;-83
2021/12/05 13:01:30;;;;;;;6.70;2.70;;;;;;;12.08;45.48;97506.34;6957568;28;20195;-83
2021/12/05 13:05:05;;;;;;;3.60;2.30;;;;;;;12.10;45.78;97496.91;6950176;28;20249;-83
2021/12/05 13:12:08;;;;;;;3.10;2.53;;;;;;;12.05;45.64;97494.13;6949557;28;20189;-82
2021/12/05 13:15:38;;;;;;;3.33;1.90;;;;;;;11.82;46.72;97488.91;6951778;28;20230;-85
2021/12/05 13:19:07;;;;;;;1.60;1.50;;;;;;;12.28;45.85;97485.84;6950908;28;20214;-82
2021/12/05 13:22:29;;;;;;;2.37;1.73;;;;;;;12.07;47.40;97505.53;6950086;28;20206;-82
2021/12/05 13:26:10;;;;;;;2.10;2.00;;;;;;;12.49;46.51;97501.31;6948070;28;20231;-82
2021/12/05 13:29:33;;;;;;;2.17;1.73;;;;;;;12.69;44.55;97509.69;6949591;28;20222;-84
2021/12/05 13:33:16;;;;;;;1.90;1.80;;;;;;;11.94;45.22;97515.84;6940796;28;20211;-82
2021/12/05 13:36:39;;;;;;;3.33;1.97;;;;;;;11.98;45.51;97517.78;6961817;28;20262;-82
2021/12/05 13:40:21;;;;;;;3.83;1.90;;;;;;;11.57;46.25;97517.31;6936446;28;20209;-82
2021/12/05 13:43:42;;;;;;;3.13;2.60;;;;;;;11.74;45.95;97512.81;6948370;28;20230;-84
2021/12/05 13:47:15;;;;;;;2.27;1.80;;;;;;;11.87;45.60;97509.78;6942803;28;20241;-84
2021/12/05 13:51:27;;;;;;;7.03;2.83;;;;;;;11.52;47.10;97514.53;6938517;28;20216;-85
2021/12/05 13:59:07;;;;;;;2.00;1.90;;;;;;;11.98;44.98;97492.69;6944976;28;20216;-84
2021/12/05 14:02:52;;;;;;;2.40;2.20;;;;;;;12.27;44.64;97513.16;6924820;28;20230;-84
2021/12/05 14:06:30;;;;;;;1.87;1.77;;;;;;;12.14;43.76;97514.28;6948271;28;20233;-87
2021/12/05 14:09:54;;;;;;;1.80;1.60;;;;;;;12.50;44.03;97523.72;6955115;28;20213;-86
2021/12/05 14:13:15;;;;;;;1.43;1.43;;;;;;;12.45;43.22;97534.50;6954867;28;20563;-86
2021/12/05 14:16:40;;;;;;;1.50;1.50;;;;;;;12.38;43.75;97531.13;6953120;28;20220;-85
2021/12/05 14:20:08;;;;;;;2.10;1.90;;;;;;;12.44;42.97;97532.84;6956381;28;20215;-86
2021/12/05 14:23:30;;;;;;;1.57;1.47;;;;;;;11.97;45.07;97542.34;6930433;28;20208;-86
2021/12/05 14:26:54;;;;;;;5.20;2.77;;;;;;;10.99;45.49;97476.25;6928668;28;20219;-84
2021/12/05 14:30:19;;;;;;;3.70;2.50;;;;;;;11.08;45.28;97545.75;6933051;28;20361;-82
2021/12/05 14:34:03;;;;;;;2.67;2.10;;;;;;;10.96;47.06;97553.06;6923287;28;20318;-83
2021/12/05 14:37:28;;;;;;;2.63;2.10;;;;;;;9.78;51.15;97534.63;6926364;28;20584;-83
2021/12/05 14:40:53;;;;;;;1.90;1.80;;;;;;;10.48;50.54;97549.00;6928527;28;20192;-85
2021/12/05 14:44:17;;;;;;;4.97;2.20;;;;;;;10.07;50.63;97533.78;6930132;28;20224;-83
2021/12/05 14:47:41;;;;;;;3.30;2.37;;;;;;;10.39;51.49;97563.91;6930271;28;20226;-85
2021/12/05 14:51:05;;;;;;;3.00;2.37;;;;;;;10.23;51.30;97541.19;6930038;28;20207;-84
2021/12/05 14:54:32;;;;;;;3.40;3.10;;;;;;;10.48;51.12;97551.72;6927881;28;20224;-82
2021/12/05 14:57:56;;;;;;;4.87;3.30;;;;;;;10.57;50.64;97551.13;6929787;28;20199;-82
2021/12/05 15:01:20;;;;;;;4.27;3.00;;;;;;;10.27;50.94;97528.88;6926174;28;20216;-84
2021/12/05 15:04:45;;;;;;;2.77;2.57;;;;;;;10.75;50.14;97590.63;6926386;28;20224;-85
2021/12/05 15:08:11;;;;;;;3.67;2.53;;;;;;;11.08;49.30;97598.88;6902368;28;20232;-83
2021/12/05 15:11:32;;;;;;;3.60;2.60;;;;;;;11.03;49.61;97596.09;6896186;28;20276;-86
2021/12/05 15:14:57;;;;;;;2.60;2.40;;;;;;;10.69;49.84;97594.25;6913719;28;20230;-83
2021/12/05 15:18:22;;;;;;;5.33;2.67;;;;;;;10.83;50.63;97596.47;6925653;28;20220;-84
2021/12/05 15:21:44;;;;;;;4.07;3.63;;;;;;;10.80;50.26;97613.09;6929566;28;20239;-87
2021/12/05 15:25:10;;;;;;;6.43;4.07;;;;;;;10.12;51.90;97590.47;6927891;28;20222;-82
2021/12/05 15:28:35;;;;;;;4.23;3.50;;;;;;;10.35;52.15;97627.38;6928837;28;20234;-83
2021/12/05 15:31:58;;;;;;;6.40;5.20;;;;;;;10.30;51.86;97641.56;6926140;28;20260;-85
2021/12/05 15:35:21;;;;;;;5.73;4.23;;;;;;;10.02;51.66;97592.84;6923059;28;20234;-84
2021/12/05 15:38:42;;;;;;;4.23;3.43;;;;;;;9.59;52.86;97646.09;6935123;28;20205;-84
2021/12/05 15:42:15;;;;;;;4.43;3.20;;;;;;;9.93;52.38;97642.69;6944475;28;20208;-85
2021/12/05 15:45:41;;;;;;;3.33;2.73;;;;;;;10.14;53.05;97642.22;6939888;28;20225;-83
2021/12/05 15:49:04;;;;;;;5.47;3.10;;;;;;;10.47;52.37;97655.16;6909217;28;20231;-84
2021/12/05 15:52:35;;;;;;;3.40;3.10;;;;;;;10.57;51.13;97640.03;6911033;28;20589;-85
2021/12/05 15:55:59;;;;;;;3.93;3.07;;;;;;;10.23;51.69;97659.69;6906701;28;20235;-84
2021/12/05 15:59:24;;;;;;;5.10;3.93;;;;;;;9.86;53.25;97660.00;6928561;28;20201;-85
2021/12/05 16:02:48;;;;;;;3.33;3.03;;;;;;;9.64;52.99;97648.09;6923652;28;20206;-83
2021/12/05 16:06:13;;;;;;;5.13;3.20;;;;;;;10.13;52.21;97655.91;6921301;28;20237;-83
2021/12/05 16:09:36;;;;;;;3.40;3.10;;;;;;;10.24;52.37;97668.56;6928121;28;20220;-87
2021/12/05 16:12:58;;;;;;;4.73;2.90;;;;;;;10.43;51.59;97645.88;6924640;28;20202;-84
2021/12/05 16:16:22;;;;;;;2.87;2.60;;;;;;;10.53;51.52;97660.44;6919433;28;20233;-88
2021/12/05 16:20:30;;;;;;;16.00;10.83;;;;;;;10.47;50.49;97665.94;6927884;28;20205;-86
2021/12/05 16:46:13;;;;;;;9.27;6.60;;;;;;;9.72;53.05;97623.53;7015805;28;20607;-86
2021/12/05 16:49:40;;;;;;;6.80;4.90;;;;;;;9.47;54.55;97690.94;7010480;28;20204;-87
2021/12/05 16:53:10;;;;;;;7.90;6.00;;;;;;;9.30;55.24;97691.75;7009864;28;20201;-87
2021/12/05 16:56:49;;;;;;;5.87;4.90;;;;;;;9.36;52.81;97615.53;7009135;28;20589;-87
2021/12/05 17:00:17;;;;;;;10.77;5.53;;;;;;;9.41;54.05;97659.56;7005021;28;20214;-88
2021/12/05 17:03:44;;;;;;;9.23;6.50;;;;;;;8.77;54.58;97626.16;7010430;28;20309;-87
2021/12/05 17:07:36;;;;;;;5.40;4.83;;;;;;;9.31;54.77;97704.97;7009185;28;20230;-88
2021/12/05 17:11:27;;;;;;;4.60;3.97;;;;;;;9.13;54.92;97714.88;7007818;28;20215;-88
2021/12/05 17:15:25;;;;;;;4.07;3.47;;;;;;;9.69;53.57;97707.44;7006911;28;20237;-86
2021/12/05 17:23:01;;;;;;;4.47;3.40;;;;;;;9.79;51.77;97656.56;6958900;28;20213;-87
2021/12/05 17:26:50;;;;;;;3.87;3.40;;;;;;;10.00;52.18;97699.16;7008772;28;20266;-86
2021/12/05 17:30:13;;;;;;;3.63;3.30;;;;;;;9.87;52.91;97705.50;7005011;28;20207;-88
2021/12/05 17:33:38;;;;;;;5.07;3.10;;;;;;;9.89;53.37;97710.69;7023126;28;20203;-85
2021/12/05 17:45:12;;;;;;;10.53;5.97;;;;;;;8.92;54.17;97650.81;6952067;28;20239;-88
2021/12/05 17:53:30;;;;;;;4.27;3.40;;;;;;;9.70;53.57;97739.47;6951055;28;20212;-87
2021/12/05 18:05:33;;;;;;;5.30;3.70;;;;;;;9.70;54.25;97746.75;6919807;28;20225;-86
2021/12/05 18:30:10;;;;;;;10.60;6.63;;;;;;;8.88;56.24;97695.28;6841655;28;20307;-86
2021/12/05 18:33:32;;;;;;;20.03;12.73;;;;;;;9.15;56.31;97759.34;6901442;28;20199;-87
2021/12/05 18:37:00;;;;;;;10.93;8.83;;;;;;;8.61;56.12;97710.00;7014985;28;20214;-89
2021/12/05 18:40:27;;;;;;;10.37;6.53;;;;;;;9.29;56.17;97778.84;6996824;28;20208;-90
2021/12/05 18:52:34;;;;;;;7.23;5.87;;;;;;;8.88;56.24;97769.72;6934052;28;20197;-90
2021/12/05 18:56:12;;;;;;;7.33;5.57;;;;;;;9.02;56.44;97792.75;6928976;28;20272;-89
2021/12/05 19:12:38;;;;;;;6.33;5.60;;;;;;;7.90;58.06;97670.22;7035034;27;20559;-88
2021/12/05 19:16:03;;;;;;;20.93;13.30;;;;;;;8.65;58.02;97783.75;7002763;28;20214;-89
2021/12/05 19:19:26;;;;;;;29.23;15.93;;;;;;;8.92;57.35;97824.69;7003506;28;20722;-88
2021/12/05 19:22:53;;;;;;;15.17;9.30;;;;;;;8.07;56.43;97639.94;7003386;28;20207;-88
2021/12/05 19:26:15;;;;;;;7.27;5.20;;;;;;;9.34;55.21;97828.25;7002922;28;20664;-89
2021/12/05 19:29:39;;;;;;;5.20;4.73;;;;;;;8.31;55.36;97697.44;7002447;28;20233;-88
2021/12/05 19:33:02;;;;;;;7.40;4.90;;;;;;;7.94;55.81;97704.44;7002221;28;20199;-89
2021/12/05 19:36:27;;;;;;;6.47;5.80;;;;;;;8.11;56.95;97728.91;7002227;28;20228;-88
2021/12/05 19:39:49;;;;;;;7.93;5.73;;;;;;;9.17;55.97;97850.53;7002967;28;20226;-89
2021/12/05 19:43:12;;;;;;;6.23;5.30;;;;;;;8.78;57.25;97852.69;7003067;28;20207;-89
2021/12/05 19:46:41;;;;;;;5.23;4.43;;;;;;;7.92;56.23;97663.59;7002020;28;20292;-88
2021/12/05 19:50:08;;;;;;;5.03;4.47;;;;;;;8.04;56.33;97704.81;7003263;28;20244;-89
2021/12/05 19:53:30;;;;;;;5.17;4.57;;;;;;;7.66;56.08;97638.78;7002442;28;20253;-89
2021/12/05 19:56:53;;;;;;;5.73;5.13;;;;;;;8.82;56.27;97798.28;7002444;28;20207;-88
2021/12/05 20:00:18;;;;;;;4.60;4.07;;;;;;;8.53;55.85;97779.28;7002873;28;20206;-89
2021/12/05 20:03:42;;;;;;;4.77;4.10;;;;;;;8.82;55.80;97817.09;7002794;28;20205;-89
2021/12/05 20:07:05;;;;;;;6.27;4.30;;;;;;;8.40;56.85;97803.53;7002304;28;20214;-88
2021/12/05 20:10:43;;;;;;;5.90;4.70;;;;;;;7.82;59.31;97850.22;7002883;28;20253;-88
2021/12/05 20:14:06;;;;;;;5.23;4.57;;;;;;;8.14;58.51;97798.28;7018276;28;20210;-88
2021/12/05 20:17:29;;;;;;;4.90;4.50;;;;;;;7.46;58.01;97707.75;7002959;28;20211;-88
2021/12/05 20:20:55;;;;;;;5.67;4.73;;;;;;;7.94;57.41;97712.50;7002224;28;20203;-89
2021/12/05 20:24:19;;;;;;;4.83;4.33;;;;;;;8.25;57.10;97779.66;6983796;28;20204;-89
2021/12/05 20:27:44;;;;;;;4.87;4.10;;;;;;;7.62;56.35;97659.84;6984835;28;20282;-90
2021/12/05 20:31:06;;;;;;;6.10;4.33;;;;;;;7.69;56.06;97654.44;6966880;28;20231;-88
2021/12/05 20:34:28;;;;;;;5.17;4.60;;;;;;;7.52;56.96;97664.84;6984406;28;20207;-88
2021/12/05 20:37:56;;;;;;;7.47;5.40;;;;;;;8.63;57.06;97890.63;6984325;28;20240;-89
2021/12/05 20:41:21;;;;;;;6.87;5.07;;;;;;;8.28;57.01;97846.38;6966712;28;20272;-89
2021/12/05 20:44:49;;;;;;;7.70;6.17;;;;;;;8.76;56.97;97870.88;6983359;28;20215;-89
2021/12/05 20:48:12;;;;;;;9.60;6.43;;;;;;;8.26;57.90;97831.50;6980966;28;20557;-89
2021/12/05 20:51:34;;;;;;;7.57;6.37;;;;;;;7.53;57.12;97676.38;6984036;28;20242;-89
2021/12/05 20:54:57;;;;;;;8.80;6.77;;;;;;;7.41;57.15;97652.09;6983230;28;20252;-89
2021/12/05 20:58:20;;;;;;;8.30;7.33;;;;;;;8.25;57.26;97795.78;6984011;28;20212;-89
2021/12/05 21:01:42;;;;;;;9.73;7.90;;;;;;;8.76;57.00;97887.00;6982846;28;20204;-89
2021/12/05 21:05:06;;;;;;;5.40;4.93;;;;;;;8.21;57.31;97817.91;6982388;28;20531;-88
2021/12/05 21:08:42;;;;;;;5.90;5.30;;;;;;;9.02;56.35;97886.84;6983018;28;20250;-89
2021/12/05 21:12:06;;;;;;;6.03;4.93;;;;;;;8.91;55.20;97861.47;6981925;28;20230;-87
2021/12/05 21:15:28;;;;;;;6.43;4.67;;;;;;;8.89;55.41;97884.25;6981832;28;20200;-86
2021/12/05 21:18:52;;;;;;;7.30;4.60;;;;;;;8.99;55.83;97906.94;6982296;28;20220;-87
2021/12/05 21:22:14;;;;;;;7.43;4.70;;;;;;;7.95;56.31;97781.22;6982412;28;20240;-87
2021/12/05 21:25:36;;;;;;;6.30;4.37;;;;;;;7.76;58.93;97915.44;6981045;28;20200;-87
2021/12/05 21:29:01;;;;;;;4.67;4.27;;;;;;;8.15;58.86;97893.88;6982055;28;20214;-87
2021/12/05 21:32:24;;;;;;;6.17;5.40;;;;;;;7.28;58.98;97729.06;6980799;28;20246;-87
2021/12/05 21:36:03;;;;;;;6.57;5.20;;;;;;;8.13;58.52;97847.66;6952236;28;20553;-86
2021/12/05 21:39:25;;;;;;;13.27;11.30;;;;;;;7.85;59.36;97860.53;6954575;28;20221;-86
2021/12/05 21:42:46;;;;;;;9.83;8.30;;;;;;;8.16;59.18;97920.53;6935747;28;20209;-86
2021/12/05 21:46:12;;;;;;;7.67;6.10;;;;;;;7.55;59.07;97809.22;6953821;28;20215;-87
2021/12/05 21:49:34;;;;;;;7.50;5.87;;;;;;;7.84;58.12;97784.56;6954012;28;20246;-86
2021/12/05 21:53:00;;;;;;;7.20;5.90;;;;;;;8.30;57.71;97857.72;6961403;28;20226;-86
2021/12/05 21:56:23;;;;;;;7.20;6.40;;;;;;;8.34;58.80;97931.44;6980938;28;20197;-87
2021/12/05 21:59:45;;;;;;;6.77;6.07;;;;;;;8.24;58.70;97895.34;6981318;28;20576;-88
